Time;durP1;ratioP1;P1;durP2;ratioP2;P2;SDS_P1;SDS_P2;PMS_P1;PMS_P2;Temp;Humidity;BMP_temperature;BMP_pressure;BME280_temperature;BME280_humidity;BME280_pressure;Samples;Min_cycle;Max_cycle;Signal;HPM_P1;HPM_P2
2023/04/07 00:00:36;;;;;;;6.00;2.20;;;8.50;99.90;;;;;;5024983;28;20033;-72
2023/04/07 00:03:05;;;;;;;6.75;2.17;;;8.40;99.90;;;;;;5025774;28;20732;-75
2023/04/07 00:05:31;;;;;;;15.32;2.28;;;8.40;99.90;;;;;;5025191;28;20028;-72
2023/04/07 00:07:56;;;;;;;4.75;2.17;;;8.40;99.90;;;;;;5026295;28;20033;-73
2023/04/07 00:10:22;;;;;;;4.22;1.92;;;8.40;99.90;;;;;;5025576;28;20087;-72
2023/04/07 00:12:48;;;;;;;7.22;2.00;;;8.40;99.90;;;;;;5023699;28;20033;-73
2023/04/07 00:15:14;;;;;;;5.53;2.10;;;8.40;99.90;;;;;;5025612;28;20048;-72
2023/04/07 00:17:39;;;;;;;7.90;2.15;;;8.40;99.90;;;;;;5025125;28;20030;-72
2023/04/07 00:20:05;;;;;;;14.45;2.10;;;8.40;99.90;;;;;;5024277;28;20037;-73
2023/04/07 00:22:31;;;;;;;13.15;3.60;;;8.40;99.90;;;;;;5025173;28;20087;-73
2023/04/07 00:25:00;;;;;;;13.52;2.47;;;8.40;99.90;;;;;;5023983;28;20041;-72
2023/04/07 00:27:25;;;;;;;8.98;2.67;;;8.40;99.90;;;;;;5025274;28;20042;-74
2023/04/07 00:29:54;;;;;;;8.05;3.28;;;8.40;99.90;;;;;;5016704;28;20045;-73
2023/04/07 00:32:20;;;;;;;7.55;3.00;;;8.40;99.90;;;;;;5025418;28;20084;-73
2023/04/07 00:34:46;;;;;;;10.20;2.70;;;8.40;99.90;;;;;;5023783;28;20033;-73
2023/04/07 00:37:11;;;;;;;8.20;2.63;;;8.40;99.90;;;;;;5025255;28;20516;-73
2023/04/07 00:39:37;;;;;;;7.93;3.00;;;8.40;99.90;;;;;;5023812;28;20518;-72
2023/04/07 00:42:04;;;;;;;10.82;3.17;;;8.40;99.90;;;;;;5025130;28;20021;-72
2023/04/07 00:44:30;;;;;;;8.45;2.95;;;8.40;99.90;;;;;;5022359;28;20111;-74
2023/04/07 00:46:55;;;;;;;7.75;2.85;;;8.40;99.90;;;;;;5023562;28;20065;-72
2023/04/07 00:49:21;;;;;;;7.03;2.97;;;8.40;99.90;;;;;;5027772;28;20065;-72
2023/04/07 00:51:47;;;;;;;6.82;2.70;;;8.40;99.90;;;;;;5024441;28;20045;-72
2023/04/07 00:54:12;;;;;;;8.10;3.15;;;8.40;99.90;;;;;;5024742;28;20037;-72
2023/04/07 00:56:38;;;;;;;9.30;3.35;;;8.40;99.90;;;;;;5024057;28;20119;-73
2023/04/07 00:59:04;;;;;;;9.63;3.80;;;8.50;99.90;;;;;;5025486;28;20055;-72
2023/04/07 01:01:42;;;;;;;4.93;2.17;;;8.50;99.90;;;;;;5022517;28;20509;-72
2023/04/07 01:04:15;;;;;;;6.15;2.60;;;8.50;99.90;;;;;;5024975;28;20091;-72
2023/04/07 01:06:47;;;;;;;7.10;1.88;;;8.50;99.90;;;;;;5023070;28;20497;-73
2023/04/07 01:09:20;;;;;;;7.10;2.33;;;8.40;99.90;;;;;;5025416;28;20029;-72
2023/04/07 01:11:58;;;;;;;10.38;2.20;;;8.40;99.90;;;;;;5023329;28;20037;-72
2023/04/07 01:14:24;;;;;;;8.63;2.55;;;8.40;99.90;;;;;;5020778;28;20045;-73
2023/04/07 01:16:51;;;;;;;6.07;2.10;;;8.40;99.90;;;;;;5024600;28;20038;-72
2023/04/07 01:19:36;;;;;;;13.68;3.75;;;8.40;99.90;;;;;;5022662;28;20029;-72
2023/04/07 01:22:21;;;;;;;10.32;2.22;;;8.40;99.90;;;;;;5017733;28;20079;-74
2023/04/07 01:25:09;;;;;;;10.55;2.78;;;8.40;99.90;;;;;;5023887;28;20087;-72
2023/04/07 01:27:59;;;;;;;12.70;3.17;;;8.40;99.90;;;;;;5022020;28;20450;-72
2023/04/07 01:30:30;;;;;;;8.75;3.17;;;8.40;99.90;;;;;;5022876;28;20738;-72
2023/04/07 01:33:01;;;;;;;10.85;2.33;;;8.40;99.90;;;;;;5016274;28;20053;-72
2023/04/07 01:35:33;;;;;;;12.40;3.70;;;8.40;99.90;;;;;;5023873;28;20022;-74
2023/04/07 01:37:59;;;;;;;10.10;2.63;;;8.40;99.90;;;;;;5024718;28;20125;-73
2023/04/07 01:40:26;;;;;;;6.22;2.28;;;8.40;99.90;;;;;;5022704;28;20120;-72
2023/04/07 01:42:56;;;;;;;11.38;2.63;;;8.40;99.90;;;;;;5023972;28;20033;-73
2023/04/07 01:45:22;;;;;;;10.27;2.63;;;8.40;99.90;;;;;;5018495;28;20037;-73
2023/04/07 01:47:51;;;;;;;8.02;2.58;;;8.40;99.90;;;;;;5022303;28;20049;-74
2023/04/07 01:50:17;;;;;;;9.35;2.85;;;8.40;99.90;;;;;;5025869;28;20057;-73
2023/04/07 01:52:43;;;;;;;9.65;2.83;;;8.40;99.90;;;;;;5027671;28;20029;-72
2023/04/07 01:55:09;;;;;;;9.15;1.50;;;8.40;99.90;;;;;;5023671;28;20084;-72
2023/04/07 01:57:38;;;;;;;12.13;2.20;;;8.40;99.90;;;;;;5023449;28;20041;-72
2023/04/07 02:00:05;;;;;;;5.15;1.98;;;8.40;99.90;;;;;;5024386;28;20069;-72
2023/04/07 02:02:34;;;;;;;8.38;2.00;;;8.40;99.90;;;;;;5023279;28;20030;-73
2023/04/07 02:05:08;;;;;;;10.05;1.63;;;8.40;99.90;;;;;;5024322;28;20033;-73
2023/04/07 02:07:53;;;;;;;9.65;3.63;;;8.30;99.90;;;;;;5022092;28;20048;-72
2023/04/07 02:10:22;;;;;;;10.00;1.73;;;8.40;99.90;;;;;;5020661;28;20033;-74
2023/04/07 02:12:48;;;;;;;4.50;1.65;;;8.40;99.90;;;;;;5024768;28;20594;-73
2023/04/07 02:15:15;;;;;;;5.72;1.27;;;8.40;99.90;;;;;;5025118;28;20072;-73
2023/04/07 02:17:44;;;;;;;6.43;1.48;;;8.40;99.90;;;;;;5025148;28;20125;-73
2023/04/07 02:20:11;;;;;;;5.83;1.63;;;8.40;99.90;;;;;;5026712;28;20037;-72
2023/04/07 02:22:41;;;;;;;8.38;1.83;;;8.40;99.90;;;;;;5025097;28;20220;-72
2023/04/07 02:25:27;;;;;;;10.07;1.47;;;8.40;99.90;;;;;;5026273;28;20045;-72
2023/04/07 02:27:55;;;;;;;4.40;1.30;;;8.40;99.90;;;;;;5018527;28;20053;-72
2023/04/07 02:30:21;;;;;;;4.68;1.60;;;8.40;99.90;;;;;;5026038;28;20072;-73
2023/04/07 02:32:47;;;;;;;11.98;2.70;;;8.40;99.90;;;;;;5028377;28;20041;-73
2023/04/07 02:35:14;;;;;;;6.68;1.38;;;8.40;99.90;;;;;;5027671;28;20036;-72
2023/04/07 02:37:39;;;;;;;8.32;1.67;;;8.40;99.90;;;;;;5027429;28;20059;-74
2023/04/07 02:40:06;;;;;;;11.27;1.98;;;8.40;99.90;;;;;;5029595;28;20060;-72
2023/04/07 02:42:35;;;;;;;7.63;2.30;;;8.40;99.90;;;;;;5025291;28;20041;-74
2023/04/07 02:45:01;;;;;;;6.32;1.30;;;8.40;99.90;;;;;;5027553;28;20057;-72
2023/04/07 02:47:27;;;;;;;10.65;1.63;;;8.40;99.90;;;;;;5027001;28;20136;-76
2023/04/07 02:49:52;;;;;;;11.98;1.52;;;8.30;99.90;;;;;;5030013;28;20434;-72
2023/04/07 02:52:18;;;;;;;9.15;1.50;;;8.30;99.90;;;;;;5026739;28;20080;-72
2023/04/07 02:54:43;;;;;;;5.53;1.38;;;8.30;99.90;;;;;;5026658;28;20037;-73
2023/04/07 02:57:09;;;;;;;10.70;1.55;;;8.30;99.90;;;;;;5027346;28;20030;-73
2023/04/07 02:59:35;;;;;;;12.95;1.83;;;8.30;99.90;;;;;;5026169;28;20433;-72
2023/04/07 03:02:00;;;;;;;9.05;2.08;;;8.30;99.90;;;;;;5027200;28;20036;-72
2023/04/07 03:04:27;;;;;;;6.63;1.42;;;8.30;99.90;;;;;;5026509;28;20033;-72
2023/04/07 03:06:55;;;;;;;6.50;1.05;;;8.20;99.90;;;;;;5018925;28;20359;-73
2023/04/07 03:09:21;;;;;;;10.38;2.05;;;8.30;99.90;;;;;;5027111;28;20130;-72
2023/04/07 03:11:46;;;;;;;7.72;1.83;;;8.30;99.90;;;;;;5026314;28;20129;-73
2023/04/07 03:14:12;;;;;;;9.95;2.15;;;8.20;99.90;;;;;;5026795;28;20025;-72
2023/04/07 03:16:37;;;;;;;5.90;1.33;;;8.30;99.90;;;;;;5025646;28;20512;-73
2023/04/07 03:19:03;;;;;;;15.55;2.35;;;8.30;99.90;;;;;;5027243;28;20034;-73
2023/04/07 03:21:31;;;;;;;16.27;1.98;;;8.30;99.90;;;;;;5025828;28;20042;-72
2023/04/07 03:23:57;;;;;;;7.18;1.58;;;8.30;99.90;;;;;;5026481;28;20060;-73
2023/04/07 03:26:22;;;;;;;13.85;2.22;;;8.30;99.90;;;;;;5026577;28;20469;-72
2023/04/07 03:28:48;;;;;;;12.35;2.72;;;8.30;99.90;;;;;;5026418;28;20049;-73
2023/04/07 03:31:14;;;;;;;13.90;1.92;;;8.30;99.90;;;;;;5026218;28;20520;-72
2023/04/07 03:33:39;;;;;;;10.32;1.88;;;8.30;99.90;;;;;;5024001;28;20401;-73
2023/04/07 03:36:06;;;;;;;10.95;2.33;;;8.30;99.90;;;;;;5025295;28;20041;-72
2023/04/07 03:38:31;;;;;;;5.68;1.38;;;8.30;99.90;;;;;;5025791;28;20053;-74
2023/04/07 03:40:57;;;;;;;7.15;1.90;;;8.30;99.90;;;;;;5025938;28;20064;-73
2023/04/07 03:43:23;;;;;;;11.52;1.92;;;8.30;99.90;;;;;;5024001;28;20044;-72
2023/04/07 03:45:48;;;;;;;8.85;1.98;;;8.30;99.90;;;;;;5025329;28;20025;-72
2023/04/07 03:48:14;;;;;;;8.20;1.60;;;8.30;99.90;;;;;;5028075;28;20121;-72
2023/04/07 03:50:40;;;;;;;13.20;2.63;;;8.30;99.90;;;;;;5026715;28;20045;-73
2023/04/07 03:53:07;;;;;;;6.60;1.58;;;8.30;99.90;;;;;;5024629;28;20048;-73
2023/04/07 03:55:33;;;;;;;11.07;2.50;;;8.30;99.90;;;;;;5024586;28;20022;-72
2023/04/07 03:57:59;;;;;;;14.85;2.13;;;8.40;99.90;;;;;;5026754;28;20025;-73
2023/04/07 04:00:25;;;;;;;8.25;1.98;;;8.40;99.90;;;;;;5024122;28;20037;-72
2023/04/07 04:02:51;;;;;;;11.43;1.92;;;8.40;99.90;;;;;;5025896;28;20036;-74
2023/04/07 04:05:17;;;;;;;13.38;2.45;;;8.40;99.90;;;;;;5025520;28;20041;-72
2023/04/07 04:07:42;;;;;;;13.55;3.75;;;8.40;99.90;;;;;;5024729;28;20055;-71
2023/04/07 04:10:08;;;;;;;13.85;3.67;;;8.40;99.90;;;;;;5025719;28;20041;-72
2023/04/07 04:12:34;;;;;;;8.88;2.80;;;8.40;99.90;;;;;;5024808;28;20033;-72
2023/04/07 04:15:00;;;;;;;12.05;2.50;;;8.40;99.90;;;;;;5025766;28;20428;-73
2023/04/07 04:17:25;;;;;;;15.68;2.40;;;8.40;99.90;;;;;;5025630;28;20045;-72
2023/04/07 04:19:51;;;;;;;5.38;2.40;;;8.40;99.90;;;;;;5022838;28;20076;-72
2023/04/07 04:22:17;;;;;;;12.75;2.63;;;8.40;99.90;;;;;;5024731;28;20414;-72
2023/04/07 04:24:43;;;;;;;13.60;2.65;;;8.40;99.90;;;;;;5025072;28;20037;-72
2023/04/07 04:27:15;;;;;;;9.38;2.38;;;8.40;99.90;;;;;;5025572;28;20045;-73
2023/04/07 04:29:40;;;;;;;7.57;2.33;;;8.40;99.90;;;;;;5025002;28;20042;-72
2023/04/07 04:32:12;;;;;;;12.52;2.28;;;8.30;99.90;;;;;;5024239;28;20042;-73
2023/04/07 04:34:40;;;;;;;6.28;1.45;;;8.30;99.90;;;;;;5022838;28;20049;-72
2023/04/07 04:37:06;;;;;;;6.32;2.17;;;8.30;99.90;;;;;;5025770;28;20034;-72
2023/04/07 04:39:32;;;;;;;10.95;2.55;;;8.40;99.90;;;;;;5024410;28;20436;-72
2023/04/07 04:41:57;;;;;;;5.03;1.27;;;8.30;99.90;;;;;;5023820;28;20540;-74
2023/04/07 04:44:23;;;;;;;10.45;1.48;;;8.30;99.90;;;;;;5024124;28;20029;-73
2023/04/07 04:46:50;;;;;;;7.72;1.30;;;8.30;99.90;;;;;;5024970;28;20132;-72
2023/04/07 04:49:17;;;;;;;7.70;1.60;;;8.30;99.90;;;;;;5023733;28;20064;-72
2023/04/07 04:51:43;;;;;;;6.90;1.27;;;8.30;99.90;;;;;;5024587;28;20045;-72
2023/04/07 04:54:09;;;;;;;11.77;1.90;;;8.30;99.90;;;;;;5022924;28;20068;-73
2023/04/07 04:56:34;;;;;;;7.07;1.27;;;8.20;99.90;;;;;;5024206;28;20922;-72
2023/04/07 04:59:00;;;;;;;7.70;1.45;;;8.30;99.90;;;;;;5025723;28;20075;-73
2023/04/07 05:01:25;;;;;;;9.80;2.42;;;8.30;99.90;;;;;;5022677;28;20095;-73
2023/04/07 05:03:51;;;;;;;4.68;2.13;;;8.30;99.90;;;;;;5023067;28;20113;-71
2023/04/07 05:06:16;;;;;;;11.18;2.67;;;8.30;99.90;;;;;;5024895;28;20769;-73
2023/04/07 05:08:42;;;;;;;6.05;1.77;;;8.20;99.90;;;;;;5024437;28;20547;-72
2023/04/07 05:11:08;;;;;;;4.63;1.90;;;8.20;99.90;;;;;;5024923;28;20133;-73
2023/04/07 05:13:33;;;;;;;3.75;1.50;;;8.20;99.90;;;;;;5023336;28;20033;-72
2023/04/07 05:16:00;;;;;;;4.00;1.35;;;8.20;99.90;;;;;;5023417;28;20049;-73
2023/04/07 05:18:25;;;;;;;5.82;1.17;;;8.20;99.90;;;;;;5024391;28;20037;-72
2023/04/07 05:20:51;;;;;;;6.88;2.03;;;8.20;99.90;;;;;;5024190;28;20035;-73
2023/04/07 05:23:17;;;;;;;6.35;1.50;;;8.30;99.90;;;;;;5024145;28;20033;-74
2023/04/07 05:25:42;;;;;;;6.88;1.50;;;8.30;99.90;;;;;;5024361;28;20030;-71
2023/04/07 05:28:08;;;;;;;7.80;1.70;;;8.20;99.90;;;;;;5025043;28;20046;-73
2023/04/07 05:30:34;;;;;;;8.75;1.88;;;8.30;99.90;;;;;;5023617;28;20045;-72
2023/04/07 05:32:59;;;;;;;7.47;1.98;;;8.30;99.90;;;;;;5025265;28;20115;-72
2023/04/07 05:35:25;;;;;;;10.20;2.28;;;8.20;99.90;;;;;;5022561;28;20780;-72
2023/04/07 05:37:51;;;;;;;9.25;2.22;;;8.30;99.90;;;;;;5020258;28;20040;-73
2023/04/07 05:40:17;;;;;;;8.38;2.25;;;8.30;99.90;;;;;;5021692;28;20060;-74
2023/04/07 05:42:42;;;;;;;3.85;1.20;;;8.30;99.90;;;;;;5023621;28;20067;-72
2023/04/07 05:45:09;;;;;;;8.63;1.48;;;8.30;99.90;;;;;;5020468;28;20128;-73
2023/04/07 05:47:34;;;;;;;5.35;1.50;;;8.40;99.90;;;;;;5022876;28;20033;-72
2023/04/07 05:50:00;;;;;;;6.50;1.40;;;8.40;99.90;;;;;;5022711;28;20127;-72
2023/04/07 05:52:26;;;;;;;3.88;1.10;;;8.40;99.90;;;;;;5022133;28;20518;-72
2023/04/07 05:54:51;;;;;;;4.10;1.40;;;8.40;99.90;;;;;;5020637;28;20453;-76
2023/04/07 05:57:17;;;;;;;11.80;2.10;;;8.40;99.90;;;;;;5023629;28;20652;-72
2023/04/07 05:59:42;;;;;;;2.10;0.93;;;8.40;99.90;;;;;;5023606;28;20060;-74
2023/04/07 06:02:08;;;;;;;6.05;1.65;;;8.40;99.90;;;;;;5023865;28;20064;-72
2023/04/07 06:04:34;;;;;;;4.22;1.25;;;8.50;99.90;;;;;;5023947;28;20091;-73
2023/04/07 06:07:00;;;;;;;5.90;1.15;;;8.40;99.90;;;;;;5028081;28;20064;-72
2023/04/07 06:09:26;;;;;;;4.65;1.10;;;8.40;99.90;;;;;;5028011;28;20049;-72
2023/04/07 06:11:55;;;;;;;2.15;0.95;;;8.50;99.90;;;;;;5025419;28;20029;-73
2023/04/07 06:14:21;;;;;;;4.65;1.27;;;8.50;99.90;;;;;;5024380;28;20565;-75
2023/04/07 06:16:46;;;;;;;4.32;1.40;;;8.50;99.90;;;;;;5024708;28;20063;-72
2023/04/07 06:19:12;;;;;;;5.50;1.15;;;8.50;99.90;;;;;;5025561;28;20029;-75
2023/04/07 06:21:38;;;;;;;5.30;1.58;;;8.50;99.90;;;;;;5023125;28;20813;-75
2023/04/07 06:24:05;;;;;;;8.48;1.98;;;8.50;99.90;;;;;;5025465;28;20029;-75
2023/04/07 06:26:34;;;;;;;6.97;1.63;;;8.50;99.90;;;;;;5024128;28;20498;-73
2023/04/07 06:28:59;;;;;;;6.63;1.35;;;8.50;99.90;;;;;;5027019;28;20489;-73
2023/04/07 06:31:25;;;;;;;7.32;1.73;;;8.50;99.90;;;;;;5024030;28;20051;-75
2023/04/07 06:33:54;;;;;;;5.07;1.40;;;8.60;99.90;;;;;;5023012;28;20050;-74
2023/04/07 06:36:20;;;;;;;12.23;1.52;;;8.60;99.90;;;;;;5025698;28;20045;-76
2023/04/07 06:38:46;;;;;;;10.25;1.65;;;8.60;99.90;;;;;;5024048;28;20037;-74
2023/04/07 06:41:15;;;;;;;9.73;1.73;;;8.70;99.90;;;;;;5024934;28;20120;-74
2023/04/07 06:43:48;;;;;;;9.55;1.52;;;8.70;99.90;;;;;;5024645;28;20164;-75
2023/04/07 06:46:13;;;;;;;12.00;1.88;;;8.70;99.90;;;;;;5022898;28;20053;-75
2023/04/07 06:48:39;;;;;;;8.10;1.50;;;8.70;99.90;;;;;;5025430;28;20045;-76
2023/04/07 06:51:05;;;;;;;10.10;1.65;;;8.70;99.90;;;;;;5024572;28;20087;-76
2023/04/07 06:53:30;;;;;;;7.85;1.25;;;8.70;99.90;;;;;;5026237;28;20051;-75
2023/04/07 06:56:22;;;;;;;6.00;1.50;;;8.70;99.90;;;;;;5025749;28;20152;-76
2023/04/07 06:58:48;;;;;;;3.33;1.13;;;8.70;99.90;;;;;;5022968;28;20123;-75
2023/04/07 07:01:14;;;;;;;5.57;1.40;;;8.70;99.90;;;;;;5025228;28;20486;-75
2023/04/07 07:03:40;;;;;;;10.23;1.58;;;8.70;99.90;;;;;;5024833;28;20034;-74
2023/04/07 07:06:06;;;;;;;5.55;1.50;;;8.70;99.90;;;;;;5024358;28;20026;-72
2023/04/07 07:08:31;;;;;;;8.23;1.60;;;8.70;99.90;;;;;;5023369;28;20045;-73
2023/04/07 07:11:03;;;;;;;5.65;1.23;;;8.80;99.90;;;;;;5025862;28;20041;-75
2023/04/07 07:13:28;;;;;;;7.18;1.10;;;8.80;99.90;;;;;;5023027;28;20243;-75
2023/04/07 07:15:54;;;;;;;8.55;1.35;;;8.80;99.90;;;;;;5023610;28;20041;-74
2023/04/07 07:18:22;;;;;;;10.63;1.10;;;8.80;99.90;;;;;;5023988;28;20047;-75
2023/04/07 07:20:49;;;;;;;11.70;3.08;;;8.90;99.90;;;;;;5024054;28;20085;-75
2023/04/07 07:23:18;;;;;;;6.55;0.80;;;8.90;99.90;;;;;;5023661;28;20041;-75
2023/04/07 07:25:44;;;;;;;5.20;1.30;;;8.90;99.90;;;;;;5024628;28;20048;-74
2023/04/07 07:28:09;;;;;;;8.50;1.23;;;8.90;99.90;;;;;;5025179;28;20040;-74
2023/04/07 07:30:35;;;;;;;13.07;1.60;;;8.90;99.90;;;;;;5023865;28;20053;-73
2023/04/07 07:33:00;;;;;;;6.93;1.55;;;8.90;99.90;;;;;;5025689;28;20045;-72
2023/04/07 07:35:26;;;;;;;9.35;1.63;;;8.90;99.90;;;;;;5023722;28;20223;-74
2023/04/07 07:37:51;;;;;;;9.05;1.85;;;8.90;99.90;;;;;;5025100;28;20034;-72
2023/04/07 07:40:17;;;;;;;7.82;1.80;;;8.90;99.90;;;;;;5025270;28;20370;-75
2023/04/07 07:42:44;;;;;;;7.80;1.17;;;8.90;99.90;;;;;;5024868;28;20121;-73
2023/04/07 07:45:12;;;;;;;8.10;1.20;;;8.90;99.90;;;;;;5023614;28;20056;-75
2023/04/07 07:47:37;;;;;;;7.72;0.80;;;8.90;99.90;;;;;;5022169;28;20111;-75
2023/04/07 07:50:06;;;;;;;7.85;1.02;;;8.80;99.90;;;;;;5025344;28;20057;-76
2023/04/07 07:52:32;;;;;;;7.30;1.23;;;8.90;99.90;;;;;;5023974;28;20120;-76
2023/04/07 07:54:58;;;;;;;8.38;1.83;;;8.90;99.90;;;;;;5020874;28;20163;-75
2023/04/07 07:57:23;;;;;;;5.40;1.23;;;8.90;99.90;;;;;;5022264;28;20041;-75
2023/04/07 07:59:49;;;;;;;5.25;1.05;;;8.90;99.90;;;;;;5023148;28;20026;-73
2023/04/07 08:02:14;;;;;;;3.85;0.98;;;8.90;99.90;;;;;;5024351;28;20064;-75
2023/04/07 08:04:43;;;;;;;9.25;1.50;;;9.00;99.90;;;;;;5022333;28;20041;-76
2023/04/07 08:07:10;;;;;;;5.18;0.80;;;9.10;99.90;;;;;;5022527;28;20046;-75
2023/04/07 08:09:36;;;;;;;3.67;0.82;;;9.10;99.90;;;;;;5022908;28;20038;-77
2023/04/07 08:12:02;;;;;;;4.95;0.95;;;9.10;99.90;;;;;;5022063;28;20049;-76
2023/04/07 08:14:28;;;;;;;4.40;0.73;;;9.30;99.90;;;;;;5022584;28;20089;-73
2023/04/07 08:16:54;;;;;;;4.25;1.23;;;9.30;99.90;;;;;;5022671;28;20053;-75
2023/04/07 08:19:20;;;;;;;3.00;0.73;;;9.40;99.90;;;;;;5021146;28;20466;-74
2023/04/07 08:21:45;;;;;;;5.95;0.82;;;9.40;99.90;;;;;;5021340;28;20136;-76
2023/04/07 08:24:11;;;;;;;7.05;1.67;;;9.40;99.90;;;;;;5021718;28;20041;-74
2023/04/07 08:26:37;;;;;;;5.38;0.85;;;9.40;99.90;;;;;;5022548;28;20053;-72
2023/04/07 08:29:03;;;;;;;3.88;0.82;;;9.40;99.90;;;;;;5020874;28;20116;-70
2023/04/07 08:31:28;;;;;;;5.68;1.00;;;9.40;99.90;;;;;;5016774;28;20041;-75
2023/04/07 08:33:56;;;;;;;7.20;0.75;;;9.30;99.90;;;;;;5021475;28;20497;-74
2023/04/07 08:36:23;;;;;;;5.68;0.90;;;9.40;99.90;;;;;;5019406;28;20068;-76
2023/04/07 08:38:49;;;;;;;6.72;0.70;;;9.50;99.90;;;;;;5020294;28;20071;-75
2023/04/07 08:41:27;;;;;;;4.35;0.70;;;9.60;99.90;;;;;;5022293;28;20521;-74
2023/04/07 08:43:53;;;;;;;6.10;1.35;;;9.60;99.90;;;;;;5020909;28;20041;-74
2023/04/07 08:46:22;;;;;;;10.38;0.85;;;9.60;99.90;;;;;;5020122;28;20049;-73
2023/04/07 08:48:49;;;;;;;8.57;1.30;;;9.60;99.90;;;;;;5025532;28;20029;-75
2023/04/07 08:51:26;;;;;;;7.63;1.20;;;9.60;99.90;;;;;;5021329;28;20048;-74
2023/04/07 08:53:53;;;;;;;3.45;0.60;;;9.70;99.90;;;;;;5023962;28;20049;-71
2023/04/07 08:56:22;;;;;;;5.93;1.17;;;9.70;99.90;;;;;;5019771;28;20045;-75
2023/04/07 08:58:52;;;;;;;8.57;1.35;;;9.70;99.90;;;;;;5016693;28;20049;-70
2023/04/07 09:01:19;;;;;;;5.13;0.98;;;9.80;99.90;;;;;;5011648;28;20045;-73
2023/04/07 09:03:47;;;;;;;5.00;0.80;;;9.70;99.90;;;;;;5016679;28;20036;-75
2023/04/07 09:06:13;;;;;;;10.10;1.75;;;9.70;99.90;;;;;;5019725;28;20025;-74
2023/04/07 09:08:39;;;;;;;7.35;2.25;;;9.70;99.90;;;;;;5018538;28;20043;-74
2023/04/07 09:11:08;;;;;;;7.18;0.57;;;9.70;99.90;;;;;;5018863;28;20033;-72
2023/04/07 09:13:39;;;;;;;9.55;0.93;;;9.90;99.90;;;;;;5019113;28;20045;-75
2023/04/07 09:16:05;;;;;;;6.43;1.42;;;10.00;99.90;;;;;;5019075;28;20091;-75
2023/04/07 09:18:31;;;;;;;8.75;0.85;;;10.00;99.90;;;;;;5019849;28;20146;-73
2023/04/07 09:21:04;;;;;;;6.22;0.75;;;10.10;99.90;;;;;;5018704;28;20691;-74
2023/04/07 09:23:38;;;;;;;6.93;0.98;;;10.10;99.90;;;;;;5015870;28;20033;-76
2023/04/07 09:26:23;;;;;;;4.85;1.58;;;10.10;99.90;;;;;;5020240;28;20061;-72
2023/04/07 09:28:54;;;;;;;7.82;1.13;;;10.20;99.90;;;;;;5018609;28;20512;-74
2023/04/07 09:31:21;;;;;;;6.57;0.93;;;10.30;99.90;;;;;;5018458;28;20069;-74
2023/04/07 09:33:50;;;;;;;9.00;1.20;;;10.40;99.90;;;;;;5020059;28;20824;-73
2023/04/07 09:36:16;;;;;;;5.50;1.60;;;10.40;99.90;;;;;;5017676;28;20136;-78
2023/04/07 09:38:43;;;;;;;9.65;1.40;;;10.30;99.90;;;;;;5019878;28;20290;-76
2023/04/07 09:41:14;;;;;;;4.38;0.80;;;10.30;99.90;;;;;;5024435;28;20038;-75
2023/04/07 09:43:45;;;;;;;6.40;1.15;;;10.40;99.90;;;;;;5021546;28;20048;-75
2023/04/07 09:46:15;;;;;;;8.90;1.55;;;10.40;99.90;;;;;;5024033;28;20037;-75
2023/04/07 09:48:42;;;;;;;3.83;0.90;;;10.40;99.90;;;;;;5026150;28;20510;-76
2023/04/07 09:51:16;;;;;;;7.93;1.90;;;10.30;99.90;;;;;;5025428;28;20520;-72
2023/04/07 09:53:46;;;;;;;6.75;1.63;;;10.30;99.90;;;;;;5027825;28;20045;-76
2023/04/07 09:56:15;;;;;;;4.30;1.15;;;10.40;99.90;;;;;;5026163;28;20045;-73
2023/04/07 09:58:41;;;;;;;4.85;0.77;;;10.40;99.90;;;;;;5026638;28;20057;-75
2023/04/07 10:01:11;;;;;;;6.68;1.02;;;10.40;99.90;;;;;;5031046;28;20045;-74
2023/04/07 10:03:43;;;;;;;5.85;1.00;;;10.40;99.90;;;;;;5027808;28;20088;-74
2023/04/07 10:06:09;;;;;;;6.28;0.73;;;10.30;99.90;;;;;;5025853;28;20034;-75
2023/04/07 10:08:40;;;;;;;9.50;0.70;;;10.40;99.90;;;;;;5023253;28;20524;-74
2023/04/07 10:11:06;;;;;;;5.20;0.70;;;10.40;99.90;;;;;;5026064;28;20033;-75
2023/04/07 10:13:40;;;;;;;4.78;0.77;;;10.50;99.90;;;;;;5028595;28;20033;-76
2023/04/07 10:16:06;;;;;;;5.20;0.68;;;10.40;99.90;;;;;;5026690;28;20494;-73
2023/04/07 10:18:37;;;;;;;6.00;0.85;;;10.40;99.90;;;;;;5025185;28;20026;-72
2023/04/07 10:21:06;;;;;;;6.25;0.77;;;10.40;99.90;;;;;;5028335;28;20037;-74
2023/04/07 10:23:57;;;;;;;5.65;0.77;;;10.40;99.90;;;;;;5023999;28;20452;-75
2023/04/07 10:26:26;;;;;;;6.93;0.77;;;10.30;99.90;;;;;;5020923;28;20037;-75
2023/04/07 10:28:59;;;;;;;7.88;1.10;;;10.30;99.90;;;;;;5027440;28;20571;-71
2023/04/07 10:31:25;;;;;;;9.63;1.13;;;10.30;99.90;;;;;;5020180;28;20037;-74
2023/04/07 10:33:57;;;;;;;6.28;1.55;;;10.20;99.90;;;;;;5025811;28;20068;-75
2023/04/07 10:36:22;;;;;;;6.00;1.05;;;10.10;99.90;;;;;;5022606;28;20041;-73
2023/04/07 10:39:06;;;;;;;6.78;1.60;;;10.00;99.90;;;;;;5026046;28;20513;-73
2023/04/07 10:41:40;;;;;;;6.40;1.40;;;10.00;99.90;;;;;;5023048;28;20046;-73
2023/04/07 10:44:07;;;;;;;5.65;1.60;;;9.90;99.90;;;;;;5026033;28;20036;-73
2023/04/07 10:46:45;;;;;;;6.30;1.10;;;9.90;99.90;;;;;;5026190;28;20037;-75
2023/04/07 10:49:15;;;;;;;6.20;1.98;;;9.90;99.90;;;;;;5028729;28;20038;-73
2023/04/07 10:51:41;;;;;;;9.30;1.50;;;10.00;99.90;;;;;;5023806;28;20042;-75
2023/04/07 10:54:24;;;;;;;14.30;1.00;;;10.00;99.90;;;;;;5025631;28;20036;-75
2023/04/07 10:57:20;;;;;;;8.48;1.45;;;10.00;99.90;;;;;;5025328;28;20055;-73
2023/04/07 11:00:10;;;;;;;14.07;2.88;;;10.00;99.90;;;;;;5015068;28;20037;-75
2023/04/07 11:02:38;;;;;;;11.38;1.67;;;10.00;99.90;;;;;;5020705;28;24236;-72
2023/04/07 11:05:05;;;;;;;8.57;1.83;;;10.00;99.90;;;;;;5018766;28;20116;-73
2023/04/07 11:07:49;;;;;;;9.30;1.23;;;9.90;99.90;;;;;;5024325;28;20409;-74
2023/04/07 11:10:15;;;;;;;5.97;1.20;;;9.90;99.90;;;;;;5024316;28;20419;-73
2023/04/07 11:12:42;;;;;;;8.73;1.73;;;9.90;99.90;;;;;;5022923;28;20167;-74
2023/04/07 11:15:18;;;;;;;7.50;0.90;;;9.90;99.90;;;;;;5024482;28;20037;-72
2023/04/07 11:17:44;;;;;;;3.30;1.08;;;10.00;99.90;;;;;;5019832;28;20036;-73
2023/04/07 11:20:10;;;;;;;7.70;1.42;;;10.00;99.90;;;;;;5023607;28;20030;-74
2023/04/07 11:22:36;;;;;;;5.18;1.02;;;10.10;99.90;;;;;;5021395;28;20977;-76
2023/04/07 11:25:01;;;;;;;8.63;1.20;;;10.20;99.90;;;;;;5020965;28;20026;-75
2023/04/07 11:27:28;;;;;;;7.57;2.30;;;10.20;99.90;;;;;;5021643;28;20040;-71
2023/04/07 11:29:55;;;;;;;5.28;0.98;;;10.30;99.90;;;;;;5021684;28;20154;-74
2023/04/07 11:32:24;;;;;;;10.60;1.38;;;10.30;99.90;;;;;;5020318;28;20025;-75
2023/04/07 11:34:50;;;;;;;13.68;1.63;;;10.30;99.90;;;;;;5021845;28;20051;-73
2023/04/07 11:37:23;;;;;;;9.30;1.23;;;10.30;99.90;;;;;;5021106;28;20490;-74
2023/04/07 11:39:57;;;;;;;6.20;1.20;;;10.30;99.90;;;;;;5020163;28;20423;-72
2023/04/07 11:42:36;;;;;;;5.93;1.42;;;10.40;99.90;;;;;;5020502;28;20022;-75
2023/04/07 11:45:02;;;;;;;11.30;2.25;;;10.50;99.90;;;;;;5020005;28;20061;-74
2023/04/07 11:47:39;;;;;;;8.95;1.08;;;10.50;99.90;;;;;;5022078;28;20033;-75
2023/04/07 11:50:06;;;;;;;8.10;1.92;;;10.60;99.90;;;;;;5024150;28;20038;-75
2023/04/07 11:52:42;;;;;;;6.30;1.27;;;10.70;99.90;;;;;;5021650;28;20060;-72
2023/04/07 11:55:23;;;;;;;7.05;1.23;;;10.90;99.90;;;;;;5023591;28;20809;-75
2023/04/07 11:57:50;;;;;;;6.93;1.45;;;11.00;99.90;;;;;;5021444;28;20026;-74
2023/04/07 12:00:17;;;;;;;6.25;1.27;;;11.20;99.90;;;;;;5022586;28;20037;-76
2023/04/07 12:02:43;;;;;;;7.88;2.03;;;11.20;99.90;;;;;;5022680;28;20103;-75
2023/04/07 12:05:09;;;;;;;5.55;1.48;;;11.20;99.90;;;;;;5024138;28;20041;-73
2023/04/07 12:07:52;;;;;;;6.90;1.02;;;11.10;99.90;;;;;;5023767;28;20029;-73
2023/04/07 12:10:19;;;;;;;10.07;1.27;;;11.00;99.90;;;;;;5020312;28;20045;-74
2023/04/07 12:12:46;;;;;;;12.65;1.90;;;10.90;99.90;;;;;;5022994;28;20033;-73
2023/04/07 12:15:12;;;;;;;11.63;1.40;;;10.80;99.90;;;;;;5022670;28;20033;-73
2023/04/07 12:17:38;;;;;;;12.30;2.97;;;10.80;99.90;;;;;;5023914;28;20045;-75
2023/04/07 12:20:04;;;;;;;7.68;1.65;;;10.80;99.90;;;;;;5025719;28;20409;-74
2023/04/07 12:22:29;;;;;;;8.75;1.70;;;10.80;99.90;;;;;;5024010;28;20037;-75
2023/04/07 12:24:55;;;;;;;12.82;1.80;;;10.80;99.90;;;;;;5023566;28;20037;-75
2023/04/07 12:27:20;;;;;;;9.77;2.25;;;10.80;99.90;;;;;;5023754;28;20092;-74
2023/04/07 12:29:47;;;;;;;12.85;2.03;;;10.90;99.90;;;;;;5022535;28;20034;-75
2023/04/07 12:32:13;;;;;;;7.43;1.58;;;10.90;99.90;;;;;;5019775;28;20227;-74
2023/04/07 12:34:38;;;;;;;7.93;1.75;;;10.90;99.90;;;;;;5023201;28;20568;-74
2023/04/07 12:37:05;;;;;;;8.23;2.28;;;10.90;99.90;;;;;;5023145;28;20037;-74
2023/04/07 12:39:30;;;;;;;9.13;1.65;;;10.90;99.90;;;;;;5023823;28;20041;-75
2023/04/07 12:41:57;;;;;;;11.60;1.50;;;10.80;99.90;;;;;;5018529;28;20043;-74
2023/04/07 12:44:22;;;;;;;8.13;1.50;;;10.80;99.90;;;;;;5019039;28;20053;-75
2023/04/07 12:46:48;;;;;;;12.80;1.42;;;10.70;99.90;;;;;;5022366;28;20068;-74
2023/04/07 12:49:13;;;;;;;8.23;1.75;;;10.80;99.90;;;;;;5024938;28;20042;-74
2023/04/07 12:51:45;;;;;;;6.93;1.10;;;10.70;99.90;;;;;;5021933;28;20037;-73
2023/04/07 12:54:11;;;;;;;8.73;1.63;;;10.70;99.90;;;;;;5018646;28;20116;-74
2023/04/07 12:56:43;;;;;;;7.95;1.52;;;10.60;99.90;;;;;;5021829;28;20152;-74